Time;durP1;ratioP1;P1;durP2;ratioP2;P2;SDS_P1;SDS_P2;PMS_P1;PMS_P2;Temp;Humidity;BMP_temperature;BMP_pressure;BME280_temperature;BME280_humidity;BME280_pressure;Samples;Min_cycle;Max_cycle;Signal;HPM_P1;HPM_P2
2023/06/11 05:03:38;;;;;;;7.00;5.30;;;19.10;99.90;;;;;;5045855;23;20054;-71
2023/06/11 05:06:08;;;;;;;8.77;5.70;;;19.10;99.90;;;;;;5011862;28;20448;-72
2023/06/11 05:08:35;;;;;;;8.05;5.60;;;19.30;99.90;;;;;;5022889;28;20180;-71
2023/06/11 05:11:01;;;;;;;6.18;4.97;;;19.40;99.90;;;;;;5009349;28;20026;-70
2023/06/11 05:13:30;;;;;;;6.45;4.90;;;19.50;99.90;;;;;;5002919;28;20029;-71
2023/06/11 05:16:01;;;;;;;7.18;4.93;;;19.60;99.60;;;;;;5002683;28;20315;-71
2023/06/11 05:18:29;;;;;;;6.20;4.60;;;19.70;99.50;;;;;;5009437;28;20219;-71
2023/06/11 05:20:57;;;;;;;7.57;6.43;;;19.70;98.80;;;;;;5022425;28;20026;-71
2023/06/11 05:23:28;;;;;;;7.13;5.88;;;19.80;98.80;;;;;;5022415;28;20025;-71
2023/06/11 05:26:01;;;;;;;7.32;6.20;;;19.90;98.30;;;;;;5022145;28;20311;-71
2023/06/11 05:28:28;;;;;;;6.13;4.97;;;20.00;97.90;;;;;;5022809;28;20028;-70
2023/06/11 05:30:53;;;;;;;6.85;5.00;;;20.10;97.90;;;;;;5021910;28;20303;-70
2023/06/11 05:33:20;;;;;;;6.22;5.63;;;20.10;97.80;;;;;;5022649;28;20026;-69
2023/06/11 05:35:47;;;;;;;8.07;5.15;;;20.10;97.90;;;;;;5014710;28;20054;-70
2023/06/11 05:38:13;;;;;;;9.40;6.90;;;20.10;97.30;;;;;;5002586;28;20018;-72
2023/06/11 05:40:41;;;;;;;6.20;5.27;;;20.20;97.20;;;;;;5003031;28;20045;-71
2023/06/11 05:43:07;;;;;;;8.10;5.65;;;20.20;97.40;;;;;;5002275;28;20033;-70
2023/06/11 05:45:35;;;;;;;6.78;5.40;;;20.30;97.20;;;;;;5002568;28;20030;-71
2023/06/11 05:48:03;;;;;;;7.28;6.00;;;20.40;97.10;;;;;;5001995;28;20288;-70
2023/06/11 05:50:30;;;;;;;7.63;5.78;;;20.50;96.30;;;;;;5002448;28;20022;-70
2023/06/11 05:52:56;;;;;;;7.30;5.65;;;20.60;96.40;;;;;;5003386;28;20064;-71
2023/06/11 05:55:23;;;;;;;7.40;5.57;;;20.70;96.40;;;;;;5002690;28;20033;-71
2023/06/11 05:57:48;;;;;;;7.60;5.95;;;20.80;96.20;;;;;;5002370;28;20018;-70
2023/06/11 06:00:15;;;;;;;5.78;4.78;;;20.90;95.80;;;;;;5002589;28;20026;-70
2023/06/11 06:02:41;;;;;;;5.15;4.50;;;20.90;95.70;;;;;;5002905;28;20051;-72
2023/06/11 06:05:12;;;;;;;5.50;4.78;;;21.00;95.60;;;;;;5002099;28;20038;-70
2023/06/11 06:07:37;;;;;;;6.30;4.75;;;21.10;95.70;;;;;;5003536;28;20033;-70
2023/06/11 06:10:03;;;;;;;5.90;5.03;;;21.10;95.10;;;;;;5001818;28;20061;-69
2023/06/11 06:12:30;;;;;;;7.40;4.55;;;21.20;95.00;;;;;;5002163;28;20018;-69
2023/06/11 06:14:57;;;;;;;6.95;4.85;;;21.20;94.90;;;;;;5001648;28;20037;-71
2023/06/11 06:17:23;;;;;;;7.57;4.68;;;21.30;94.90;;;;;;5002016;28;20030;-71
2023/06/11 06:19:48;;;;;;;6.80;4.85;;;21.40;94.90;;;;;;5002370;28;20130;-69
2023/06/11 06:22:15;;;;;;;6.00;4.57;;;21.50;94.50;;;;;;5001775;28;20023;-71
2023/06/11 06:24:42;;;;;;;7.07;4.28;;;21.50;94.30;;;;;;5002050;28;20034;-69
2023/06/11 06:27:07;;;;;;;6.22;4.53;;;21.60;94.30;;;;;;5005180;28;20077;-70
2023/06/11 06:29:38;;;;;;;6.22;4.68;;;21.70;94.40;;;;;;5006167;28;20094;-70
2023/06/11 06:32:06;;;;;;;5.90;4.72;;;21.80;94.00;;;;;;5005305;28;20048;-70
2023/06/11 06:34:32;;;;;;;6.78;4.40;;;22.00;93.40;;;;;;5006016;28;20033;-68
2023/06/11 06:37:00;;;;;;;6.68;4.40;;;22.10;93.20;;;;;;5015412;28;20034;-69
2023/06/11 06:39:27;;;;;;;4.88;4.38;;;22.20;92.20;;;;;;5025626;28;20022;-69
2023/06/11 06:41:53;;;;;;;5.53;4.13;;;22.30;91.70;;;;;;5024749;28;20034;-70
2023/06/11 06:44:22;;;;;;;7.75;4.35;;;22.40;91.60;;;;;;5025234;28;20059;-69
2023/06/11 06:46:48;;;;;;;6.03;4.28;;;22.40;91.50;;;;;;5025484;28;20331;-69
2023/06/11 06:49:14;;;;;;;6.78;4.28;;;22.50;91.40;;;;;;5024953;28;20025;-70
2023/06/11 06:51:40;;;;;;;6.95;4.47;;;22.70;91.30;;;;;;5026233;28;20036;-70
2023/06/11 06:54:06;;;;;;;5.47;4.68;;;22.80;91.20;;;;;;5024676;28;20072;-70
2023/06/11 06:56:33;;;;;;;11.45;9.30;;;22.90;91.10;;;;;;5025388;28;20314;-70
2023/06/11 06:59:01;;;;;;;7.67;5.10;;;23.00;91.00;;;;;;5026313;28;20029;-72
2023/06/11 07:01:27;;;;;;;6.90;4.72;;;23.00;90.50;;;;;;5024580;28;20328;-69
2023/06/11 07:03:53;;;;;;;5.95;4.47;;;23.00;90.10;;;;;;5021815;28;20299;-70
2023/06/11 07:06:19;;;;;;;7.35;4.30;;;23.00;88.90;;;;;;5006438;28;20026;-70
2023/06/11 07:08:46;;;;;;;5.15;4.10;;;23.00;88.00;;;;;;5005455;28;20103;-72
2023/06/11 07:11:15;;;;;;;4.93;4.28;;;23.10;87.80;;;;;;5005678;28;20061;-69
2023/06/11 07:13:43;;;;;;;4.63;4.20;;;23.00;88.00;;;;;;5005222;28;20034;-70
2023/06/11 07:16:10;;;;;;;7.45;4.30;;;23.00;87.50;;;;;;5010885;28;20252;-68
2023/06/11 07:18:39;;;;;;;6.35;4.50;;;23.10;87.60;;;;;;5022647;28;20060;-70
2023/06/11 07:21:05;;;;;;;5.93;4.10;;;23.10;86.40;;;;;;5025444;28;20207;-69
2023/06/11 07:23:32;;;;;;;5.32;4.18;;;23.10;86.70;;;;;;5025554;28;20361;-69
2023/06/11 07:25:58;;;;;;;7.50;4.28;;;23.20;86.30;;;;;;5024296;28;20030;-68
2023/06/11 07:28:28;;;;;;;7.30;4.22;;;23.30;86.30;;;;;;5008872;28;20026;-69
2023/06/11 07:30:56;;;;;;;6.63;4.50;;;23.40;86.10;;;;;;5024050;28;20044;-70
2023/06/11 07:33:22;;;;;;;7.18;4.25;;;23.50;86.40;;;;;;5024103;28;20026;-68
2023/06/11 07:35:49;;;;;;;5.57;4.60;;;23.50;85.20;;;;;;5024220;28;20261;-70
2023/06/11 07:38:17;;;;;;;5.95;4.40;;;23.50;84.80;;;;;;5024045;28;20092;-72
2023/06/11 07:40:42;;;;;;;5.82;4.38;;;23.60;84.20;;;;;;5024406;28;20036;-72
2023/06/11 07:43:08;;;;;;;4.80;4.03;;;23.60;83.10;;;;;;5023723;28;20306;-72
2023/06/11 07:45:34;;;;;;;5.65;4.50;;;23.80;82.70;;;;;;5024423;28;20038;-71
2023/06/11 07:48:00;;;;;;;5.93;4.20;;;23.90;82.30;;;;;;5025140;28;20303;-73
2023/06/11 07:50:26;;;;;;;5.80;3.97;;;23.90;81.10;;;;;;5008037;28;20054;-70
2023/06/11 07:52:52;;;;;;;9.07;5.00;;;23.90;80.80;;;;;;5004584;28;20251;-69
2023/06/11 07:55:23;;;;;;;5.28;4.10;;;24.00;80.30;;;;;;5006558;28;20221;-71
2023/06/11 07:57:49;;;;;;;7.25;3.60;;;24.20;79.10;;;;;;5005592;28;20026;-70
2023/06/11 08:00:16;;;;;;;5.45;3.80;;;24.30;78.70;;;;;;5007952;28;20026;-70
2023/06/11 08:02:43;;;;;;;4.45;3.55;;;24.40;78.60;;;;;;5018956;28;20050;-67
2023/06/11 08:05:11;;;;;;;5.35;4.25;;;24.50;78.40;;;;;;5017664;28;20038;-69
2023/06/11 08:07:38;;;;;;;6.00;4.07;;;24.50;78.30;;;;;;5015424;28;20026;-69
2023/06/11 08:10:05;;;;;;;5.22;3.70;;;24.60;76.90;;;;;;5012515;28;20042;-69
2023/06/11 08:12:30;;;;;;;5.47;3.55;;;24.60;76.30;;;;;;5005067;28;20224;-69
2023/06/11 08:14:56;;;;;;;4.60;3.70;;;24.60;76.80;;;;;;5005438;28;20046;-68
2023/06/11 08:17:22;;;;;;;6.40;4.30;;;24.70;76.50;;;;;;5004570;28;20026;-69
2023/06/11 08:19:47;;;;;;;4.75;3.55;;;24.70;76.60;;;;;;5004982;28;20038;-68
2023/06/11 08:22:13;;;;;;;7.47;4.07;;;24.70;75.60;;;;;;5004789;28;20018;-69
2023/06/11 08:24:39;;;;;;;3.97;3.20;;;24.60;75.80;;;;;;5021198;28;20057;-69
2023/06/11 08:27:07;;;;;;;6.47;3.58;;;24.60;76.00;;;;;;5023218;28;20026;-69
2023/06/11 08:29:32;;;;;;;4.45;3.60;;;24.60;75.10;;;;;;5024318;28;20045;-69
2023/06/11 08:31:58;;;;;;;6.18;3.60;;;24.60;74.60;;;;;;5023224;28;20038;-69
2023/06/11 08:34:24;;;;;;;8.07;6.85;;;24.60;74.60;;;;;;5024463;28;20026;-71
2023/06/11 08:36:50;;;;;;;5.55;4.07;;;24.70;74.30;;;;;;5024610;28;20092;-69
2023/06/11 08:39:16;;;;;;;6.45;3.95;;;24.90;74.00;;;;;;5022563;28;20033;-70
2023/06/11 08:41:42;;;;;;;4.78;3.53;;;25.00;73.60;;;;;;5018467;28;20300;-69
2023/06/11 08:44:08;;;;;;;6.10;3.83;;;25.20;73.90;;;;;;5003066;28;20034;-69
2023/06/11 08:46:35;;;;;;;6.43;3.55;;;25.20;74.10;;;;;;5004333;28;20072;-70
2023/06/11 08:49:06;;;;;;;4.93;3.80;;;25.20;73.70;;;;;;5003078;28;20343;-70
2023/06/11 08:51:38;;;;;;;4.45;3.60;;;25.50;74.10;;;;;;5004286;28;20029;-71
2023/06/11 08:54:08;;;;;;;6.18;3.40;;;25.60;73.20;;;;;;5003572;28;20239;-71
2023/06/11 08:56:34;;;;;;;5.65;3.53;;;25.70;71.40;;;;;;5004345;28;20030;-70
2023/06/11 08:59:01;;;;;;;5.60;3.63;;;25.70;72.10;;;;;;5004117;28;20061;-71
2023/06/11 09:01:27;;;;;;;4.25;3.38;;;25.90;71.40;;;;;;5003931;28;20089;-70
2023/06/11 09:03:53;;;;;;;4.22;3.65;;;25.80;72.10;;;;;;5021900;28;20042;-70
2023/06/11 09:06:19;;;;;;;4.68;3.30;;;26.00;71.50;;;;;;5023401;28;20294;-69
2023/06/11 09:09:17;;;;;;;5.82;3.65;;;26.20;71.10;;;;;;5023818;28;20030;-71
2023/06/11 09:11:44;;;;;;;7.82;4.40;;;26.40;72.30;;;;;;4990905;28;20064;-69
2023/06/11 09:14:10;;;;;;;5.78;4.45;;;26.40;72.50;;;;;;5023122;28;20060;-69
2023/06/11 09:16:44;;;;;;;6.03;4.45;;;26.50;71.60;;;;;;5024016;28;20022;-70
2023/06/11 09:19:12;;;;;;;4.18;3.50;;;26.50;70.90;;;;;;5022863;28;20036;-70
2023/06/11 09:21:38;;;;;;;4.32;3.58;;;26.70;71.50;;;;;;5023561;28;20028;-70
2023/06/11 09:24:09;;;;;;;4.70;3.30;;;26.90;70.50;;;;;;5023513;28;20231;-70
2023/06/11 09:26:34;;;;;;;7.20;3.70;;;27.20;68.80;;;;;;5004264;28;20026;-70
2023/06/11 09:29:00;;;;;;;5.13;3.38;;;27.30;67.90;;;;;;5005706;28;20057;-69
2023/06/11 09:31:26;;;;;;;5.72;3.47;;;27.50;66.90;;;;;;5006319;28;20022;-68
2023/06/11 09:33:52;;;;;;;5.80;3.75;;;27.30;66.00;;;;;;5005633;28;20077;-69
2023/06/11 09:36:18;;;;;;;6.63;3.70;;;27.30;65.70;;;;;;5022645;28;20033;-69
2023/06/11 09:38:50;;;;;;;4.97;3.33;;;27.30;64.80;;;;;;5023539;28;20029;-69
2023/06/11 09:41:16;;;;;;;3.90;3.10;;;27.30;64.00;;;;;;5022112;28;20056;-68
2023/06/11 09:43:43;;;;;;;5.13;3.33;;;27.30;61.90;;;;;;5022282;28;20034;-69
2023/06/11 09:46:10;;;;;;;5.32;3.22;;;27.30;62.90;;;;;;5023071;28;20041;-70
2023/06/11 09:48:36;;;;;;;4.45;3.53;;;27.20;62.70;;;;;;5023249;28;20034;-69
2023/06/11 09:51:03;;;;;;;3.92;3.30;;;27.10;62.40;;;;;;5023050;28;20029;-69
2023/06/11 09:53:31;;;;;;;4.43;3.47;;;27.00;62.60;;;;;;5023149;28;20207;-71
2023/06/11 09:55:57;;;;;;;6.68;3.55;;;27.20;61.20;;;;;;5023171;28;20093;-70
2023/06/11 09:58:23;;;;;;;5.53;3.35;;;27.30;59.90;;;;;;5022375;28;20316;-70
2023/06/11 10:00:50;;;;;;;6.35;3.80;;;27.30;61.20;;;;;;5022812;28;20022;-71
2023/06/11 10:03:16;;;;;;;7.90;4.13;;;27.40;61.50;;;;;;5009724;28;20049;-73
2023/06/11 10:05:42;;;;;;;6.15;4.07;;;27.30;61.60;;;;;;5003287;28;20253;-72
2023/06/11 10:08:20;;;;;;;6.35;4.20;;;27.30;62.40;;;;;;5002531;28;20038;-72
2023/06/11 10:10:50;;;;;;;6.38;3.65;;;27.20;62.50;;;;;;5003436;28;20293;-72
2023/06/11 10:13:33;;;;;;;11.10;7.95;;;27.30;62.50;;;;;;5002905;28;20109;-71
2023/06/11 10:16:03;;;;;;;5.93;4.05;;;27.20;62.20;;;;;;5003129;28;20110;-71
2023/06/11 10:18:30;;;;;;;5.55;3.58;;;27.20;60.90;;;;;;5002962;28;20049;-72
2023/06/11 10:21:01;;;;;;;4.38;3.33;;;27.30;60.40;;;;;;5002790;28;20037;-73
2023/06/11 10:23:37;;;;;;;5.95;3.72;;;27.50;60.10;;;;;;5001476;28;20038;-72
2023/06/11 10:26:03;;;;;;;6.30;3.67;;;27.80;60.60;;;;;;5003025;28;20304;-73
2023/06/11 10:28:43;;;;;;;4.85;3.17;;;27.90;60.30;;;;;;5002347;28;20093;-74
2023/06/11 10:31:09;;;;;;;4.65;3.38;;;27.80;59.30;;;;;;5002403;28;20343;-72
2023/06/11 10:33:45;;;;;;;7.55;3.40;;;27.60;59.70;;;;;;5003197;28;20030;-74
2023/06/11 10:36:31;;;;;;;6.32;3.92;;;27.80;59.20;;;;;;5002177;28;20022;-73
2023/06/11 10:39:20;;;;;;;4.70;3.30;;;27.80;59.40;;;;;;5002862;28;20227;-73
2023/06/11 10:41:46;;;;;;;5.10;3.75;;;27.80;59.00;;;;;;5002848;28;20308;-73
2023/06/11 10:44:14;;;;;;;5.90;3.70;;;27.90;59.30;;;;;;5002419;28;20034;-73
2023/06/11 10:46:50;;;;;;;5.70;3.50;;;28.10;59.70;;;;;;5002740;28;20256;-73
2023/06/11 10:49:17;;;;;;;6.10;3.50;;;28.30;58.90;;;;;;5002261;28;20106;-73
2023/06/11 10:51:43;;;;;;;8.57;4.40;;;28.50;58.60;;;;;;5002865;28;20032;-73
2023/06/11 10:54:09;;;;;;;6.82;3.88;;;28.50;58.90;;;;;;5002366;28;20034;-74
2023/06/11 10:56:38;;;;;;;6.13;3.38;;;28.50;59.20;;;;;;5002667;28;20033;-74
2023/06/11 10:59:10;;;;;;;7.60;3.95;;;28.60;58.60;;;;;;5002719;28;20022;-71
2023/06/11 11:01:37;;;;;;;7.03;4.28;;;28.80;58.70;;;;;;5002379;28;20032;-72
2023/06/11 11:04:03;;;;;;;5.75;4.00;;;28.80;59.40;;;;;;5021820;28;20204;-73
2023/06/11 11:06:29;;;;;;;7.28;3.63;;;28.60;59.70;;;;;;5021619;28;20370;-72
2023/06/11 11:08:56;;;;;;;5.07;3.90;;;28.50;59.30;;;;;;5021907;28;20386;-72
2023/06/11 11:11:26;;;;;;;8.27;3.92;;;28.60;59.50;;;;;;5022538;28;20030;-71
2023/06/11 11:13:53;;;;;;;7.00;3.88;;;28.60;59.10;;;;;;5025731;28;20049;-72
2023/06/11 11:16:20;;;;;;;9.73;7.78;;;28.80;59.70;;;;;;5024106;28;20080;-73
2023/06/11 11:18:47;;;;;;;7.05;5.13;;;29.10;59.00;;;;;;5025593;28;20042;-72
2023/06/11 11:21:13;;;;;;;5.70;3.77;;;29.30;57.60;;;;;;5024937;28;20415;-72
2023/06/11 11:23:39;;;;;;;5.07;3.35;;;29.40;57.30;;;;;;5025667;28;20030;-71
2023/06/11 11:26:05;;;;;;;5.88;3.38;;;29.30;57.80;;;;;;5025351;28;20064;-71
2023/06/11 11:28:32;;;;;;;5.70;3.83;;;29.30;57.30;;;;;;5024825;28;20169;-71
2023/06/11 11:30:59;;;;;;;5.45;3.35;;;29.50;57.10;;;;;;5025229;28;20036;-71
2023/06/11 11:33:25;;;;;;;5.53;3.90;;;29.60;56.40;;;;;;5024696;28;20037;-72
2023/06/11 11:35:56;;;;;;;4.88;3.55;;;29.70;56.10;;;;;;5025218;28;20255;-71
2023/06/11 11:38:22;;;;;;;7.20;3.10;;;30.00;56.30;;;;;;5024950;28;20042;-72
2023/06/11 11:40:56;;;;;;;5.53;3.40;;;30.60;55.20;;;;;;5025593;28;20034;-72
2023/06/11 11:43:22;;;;;;;5.82;3.20;;;31.30;54.30;;;;;;5024661;28;20219;-73
2023/06/11 11:45:48;;;;;;;4.45;2.88;;;31.70;54.00;;;;;;5025192;28;20085;-71
2023/06/11 11:48:15;;;;;;;4.90;2.90;;;32.40;52.70;;;;;;5025025;28;20029;-73
2023/06/11 11:50:41;;;;;;;9.30;3.28;;;33.20;51.70;;;;;;5025163;28;20025;-75
2023/06/11 11:53:09;;;;;;;4.10;3.30;;;34.00;50.70;;;;;;5024931;28;20086;-73
2023/06/11 11:55:37;;;;;;;4.80;3.00;;;34.90;50.10;;;;;;5024474;28;20037;-72
2023/06/11 11:58:08;;;;;;;4.22;2.70;;;35.60;48.90;;;;;;5025121;28;20025;-74
2023/06/11 12:00:35;;;;;;;3.75;2.63;;;36.10;47.70;;;;;;5015296;28;20034;-73
2023/06/11 12:03:09;;;;;;;10.20;8.77;;;36.10;47.70;;;;;;5004877;28;20085;-72
2023/06/11 12:05:36;;;;;;;5.40;3.13;;;36.90;46.70;;;;;;5004397;28;20030;-74
2023/06/11 12:08:03;;;;;;;4.05;2.80;;;37.50;47.40;;;;;;5004144;28;20212;-72
2023/06/11 12:10:28;;;;;;;3.85;2.72;;;38.20;46.10;;;;;;5004414;28;20053;-72
2023/06/11 12:12:54;;;;;;;3.35;2.65;;;38.30;45.00;;;;;;5004973;28;20061;-72
2023/06/11 12:15:20;;;;;;;3.75;2.95;;;38.60;46.00;;;;;;5004430;28;20030;-74
2023/06/11 12:17:45;;;;;;;4.15;3.00;;;38.60;44.80;;;;;;5005319;28;20033;-73
2023/06/11 12:20:12;;;;;;;4.40;2.38;;;39.10;44.70;;;;;;5005364;28;20026;-72
2023/06/11 12:22:38;;;;;;;3.63;2.60;;;39.80;44.80;;;;;;5004918;28;20328;-71
2023/06/11 12:25:05;;;;;;;3.30;2.60;;;39.50;44.00;;;;;;5004778;28;20030;-72
2023/06/11 12:27:31;;;;;;;5.30;2.92;;;37.60;44.80;;;;;;5003232;28;20034;-73
2023/06/11 12:29:57;;;;;;;6.35;5.72;;;36.50;45.60;;;;;;5004809;28;20145;-72
2023/06/11 12:32:25;;;;;;;4.63;3.05;;;35.90;46.20;;;;;;5004132;28;20034;-73
2023/06/11 12:34:50;;;;;;;;;;;36.50;45.60;;;;;;5003943;28;20033;-72
2023/06/11 12:37:16;;;;;;;3.88;2.80;;;37.20;45.40;;;;;;5004452;28;19906;-72
2023/06/11 12:39:43;;;;;;;4.07;2.53;;;38.20;44.60;;;;;;5004989;28;20022;-73
2023/06/11 12:42:16;;;;;;;3.28;2.78;;;39.10;43.20;;;;;;5004475;28;20038;-73
2023/06/11 12:44:43;;;;;;;4.60;2.60;;;39.60;43.50;;;;;;5004660;28;20061;-71
2023/06/11 12:47:09;;;;;;;3.70;2.45;;;40.50;42.30;;;;;;5004465;28;20045;-72
2023/06/11 12:49:35;;;;;;;3.55;2.47;;;40.90;43.10;;;;;;5004120;28;20042;-73
2023/06/11 12:52:01;;;;;;;4.75;2.65;;;41.00;42.90;;;;;;5004506;28;20141;-72
2023/06/11 12:54:26;;;;;;;2.83;2.17;;;41.40;41.80;;;;;;5003936;28;20072;-74
2023/06/11 12:56:52;;;;;;;4.88;2.70;;;42.40;42.10;;;;;;5004589;28;20203;-74
2023/06/11 12:59:20;;;;;;;4.78;4.13;;;43.30;40.80;;;;;;5003732;28;20090;-72
2023/06/11 13:01:45;;;;;;;3.40;3.10;;;43.80;41.00;;;;;;5003701;28;20073;-73
2023/06/11 13:04:11;;;;;;;4.07;2.70;;;43.40;41.30;;;;;;5004029;28;20085;-72
2023/06/11 13:06:37;;;;;;;2.83;2.45;;;42.90;40.60;;;;;;5003640;28;20355;-72
2023/06/11 13:09:03;;;;;;;3.55;2.78;;;42.60;40.70;;;;;;5003864;28;20216;-71
2023/06/11 13:11:29;;;;;;;3.50;2.47;;;43.30;40.60;;;;;;5003209;28;20050;-73
2023/06/11 13:13:55;;;;;;;4.45;2.30;;;43.50;40.50;;;;;;5003919;28;20073;-71
2023/06/11 13:16:22;;;;;;;5.05;2.70;;;44.00;40.90;;;;;;5003384;28;20038;-74
2023/06/11 13:18:48;;;;;;;2.50;2.10;;;45.00;39.80;;;;;;5003765;28;20037;-74
2023/06/11 13:21:15;;;;;;;4.32;2.70;;;45.40;39.00;;;;;;5003666;28;20239;-73
2023/06/11 13:23:42;;;;;;;;;;;44.50;38.90;;;;;;5003770;28;20037;-73
2023/06/11 13:26:09;;;;;;;2.75;2.30;;;44.90;39.30;;;;;;5003883;28;19910;-73
2023/06/11 13:28:35;;;;;;;3.95;2.35;;;45.70;38.70;;;;;;5003296;28;20046;-73
2023/06/11 13:31:02;;;;;;;3.60;2.58;;;44.10;38.80;;;;;;5002813;28;20045;-73
2023/06/11 13:33:30;;;;;;;6.18;2.65;;;41.10;41.20;;;;;;5003088;28;20038;-71
2023/06/11 13:35:55;;;;;;;;;;;40.20;41.50;;;;;;5003861;28;20030;-73
2023/06/11 13:38:21;;;;;;;3.22;2.85;;;41.20;41.70;;;;;;5003244;28;19902;-72
2023/06/11 13:40:47;;;;;;;4.10;2.63;;;42.50;40.60;;;;;;5003716;28;20338;-73
2023/06/11 13:43:13;;;;;;;3.65;2.90;;;42.90;40.20;;;;;;5003592;28;20038;-74
2023/06/11 13:45:43;;;;;;;4.05;2.45;;;43.10;38.90;;;;;;5002771;28;20144;-73
2023/06/11 13:48:18;;;;;;;4.70;2.60;;;44.30;39.50;;;;;;5003200;28;20030;-72
2023/06/11 13:50:46;;;;;;;3.60;2.63;;;44.80;39.00;;;;;;5003587;28;20058;-74
2023/06/11 13:53:12;;;;;;;2.75;2.45;;;44.50;38.70;;;;;;5003512;28;20025;-73
2023/06/11 13:55:38;;;;;;;3.80;2.73;;;44.30;38.40;;;;;;5002866;28;20042;-73
2023/06/11 13:58:04;;;;;;;3.40;2.50;;;44.00;38.10;;;;;;5003185;28;20030;-72
2023/06/11 14:00:30;;;;;;;4.40;2.38;;;44.60;37.80;;;;;;5002876;28;20030;-73
2023/06/11 14:02:56;;;;;;;4.30;2.40;;;44.80;37.40;;;;;;5001777;28;20057;-73
2023/06/11 14:05:22;;;;;;;4.47;2.50;;;45.00;37.60;;;;;;5002483;28;20097;-74
2023/06/11 14:07:51;;;;;;;3.45;2.80;;;45.40;37.50;;;;;;5003099;28;20035;-72
2023/06/11 14:10:17;;;;;;;3.97;3.58;;;44.70;37.10;;;;;;5003373;28;20396;-73
2023/06/11 14:12:42;;;;;;;3.75;2.70;;;43.40;37.80;;;;;;5002757;28;20018;-74
2023/06/11 14:15:09;;;;;;;4.07;2.40;;;43.90;37.90;;;;;;5003188;28;20034;-72
2023/06/11 14:17:39;;;;;;;3.40;2.40;;;44.10;37.70;;;;;;5002791;28;20065;-73
2023/06/11 14:20:08;;;;;;;4.32;2.67;;;44.00;37.80;;;;;;5003238;28;20339;-72
2023/06/11 14:22:34;;;;;;;3.10;2.40;;;43.90;38.00;;;;;;5002397;28;20034;-73
2023/06/11 14:25:00;;;;;;;3.03;2.20;;;44.10;37.70;;;;;;5003285;28;20041;-73
2023/06/11 14:27:26;;;;;;;3.60;2.45;;;45.00;37.40;;;;;;5002503;28;20027;-73
2023/06/11 14:29:52;;;;;;;5.70;2.38;;;45.50;37.00;;;;;;5003418;28;20330;-73
2023/06/11 14:32:18;;;;;;;2.95;2.35;;;46.60;37.10;;;;;;5003083;28;20097;-72
2023/06/11 14:34:43;;;;;;;3.38;2.42;;;46.90;36.90;;;;;;5002216;28;20058;-71
2023/06/11 14:37:09;;;;;;;5.03;3.03;;;46.90;36.80;;;;;;5003069;28;20030;-74
2023/06/11 14:39:35;;;;;;;3.92;2.63;;;46.60;36.80;;;;;;5002587;28;20034;-74
2023/06/11 14:42:01;;;;;;;3.88;2.47;;;46.50;36.50;;;;;;5002959;28;20029;-73
2023/06/11 14:44:27;;;;;;;3.58;2.20;;;46.50;36.50;;;;;;5002597;28;20026;-75
2023/06/11 14:46:52;;;;;;;5.67;2.60;;;46.60;37.00;;;;;;5004672;28;20030;-73
2023/06/11 14:49:22;;;;;;;2.60;2.38;;;46.50;36.40;;;;;;5005881;28;20026;-73
2023/06/11 14:51:48;;;;;;;3.10;2.50;;;45.70;36.20;;;;;;5006965;28;20022;-74
2023/06/11 14:54:14;;;;;;;3.17;2.40;;;45.60;36.80;;;;;;5006877;28;20101;-73
2023/06/11 14:56:40;;;;;;;3.97;2.58;;;46.30;36.90;;;;;;5005887;28;20033;-73
2023/06/11 14:59:05;;;;;;;4.32;2.58;;;45.90;36.60;;;;;;5007112;28;20040;-74
2023/06/11 15:01:31;;;;;;;4.13;2.40;;;45.70;36.60;;;;;;5007017;28;20026;-72
2023/06/11 15:03:57;;;;;;;12.05;10.85;;;44.30;36.90;;;;;;5019678;28;20343;-73
2023/06/11 15:06:23;;;;;;;3.38;2.42;;;44.10;37.20;;;;;;5005960;28;20231;-73
2023/06/11 15:08:50;;;;;;;3.80;2.38;;;45.20;37.40;;;;;;5006218;28;20030;-73
2023/06/11 15:11:16;;;;;;;4.45;2.63;;;46.30;36.70;;;;;;5006250;28;20049;-72
2023/06/11 15:13:41;;;;;;;4.20;2.45;;;46.90;36.30;;;;;;5005580;28;20038;-73
2023/06/11 15:16:07;;;;;;;3.83;2.35;;;47.30;36.20;;;;;;5007283;28;20034;-72
2023/06/11 15:18:33;;;;;;;4.32;2.67;;;45.60;36.90;;;;;;5007592;28;20300;-74
2023/06/11 15:20:59;;;;;;;5.57;2.75;;;44.90;36.90;;;;;;5009024;28;20303;-73
2023/06/11 15:23:25;;;;;;;4.40;3.00;;;44.70;37.10;;;;;;5007627;28;20038;-73
2023/06/11 15:25:51;;;;;;;2.80;2.30;;;45.00;36.60;;;;;;5007729;28;20304;-73
2023/06/11 15:28:17;;;;;;;3.28;2.55;;;45.50;36.30;;;;;;5005012;28;20038;-72
2023/06/11 15:30:44;;;;;;;3.03;2.67;;;45.60;36.40;;;;;;5005674;28;20037;-73
2023/06/11 15:33:10;;;;;;;;;;;46.20;36.40;;;;;;5006865;28;20042;-72
2023/06/11 15:35:36;;;;;;;4.15;2.20;;;46.40;35.90;;;;;;5005527;28;19909;-73
2023/06/11 15:38:02;;;;;;;3.17;2.50;;;46.10;35.70;;;;;;5005933;28;20061;-72
2023/06/11 15:40:28;;;;;;;5.13;2.75;;;45.60;36.10;;;;;;5005534;28;20123;-73
2023/06/11 15:42:54;;;;;;;4.70;2.88;;;45.70;36.20;;;;;;5005970;28;20038;-72
2023/06/11 15:45:20;;;;;;;3.08;2.25;;;45.90;36.00;;;;;;5005604;28;20244;-73
2023/06/11 15:47:46;;;;;;;3.55;2.50;;;45.50;36.00;;;;;;5005004;28;20050;-74
2023/06/11 15:50:11;;;;;;;3.67;2.50;;;46.10;36.00;;;;;;5005933;28;20038;-74
2023/06/11 15:52:37;;;;;;;3.15;2.38;;;46.30;36.00;;;;;;5005098;28;20299;-73
2023/06/11 15:55:03;;;;;;;3.42;2.28;;;46.10;36.10;;;;;;5005662;28;20030;-71
2023/06/11 15:57:29;;;;;;;4.63;2.43;;;45.80;36.20;;;;;;5004809;28;20054;-74
2023/06/11 15:59:55;;;;;;;3.72;2.53;;;46.30;35.80;;;;;;5005704;28;20328;-72
2023/06/11 16:02:21;;;;;;;4.32;2.78;;;46.30;35.20;;;;;;5005119;28;20042;-73
2023/06/11 16:04:47;;;;;;;4.50;2.30;;;46.40;35.10;;;;;;5003158;28;20093;-72
2023/06/11 16:07:14;;;;;;;4.03;2.22;;;45.90;35.00;;;;;;5005520;28;20029;-71
2023/06/11 16:09:40;;;;;;;4.25;2.60;;;46.40;35.50;;;;;;5004887;28;20057;-71
2023/06/11 16:12:07;;;;;;;4.00;2.43;;;46.50;35.40;;;;;;5005407;28;20474;-73
2023/06/11 16:14:32;;;;;;;3.22;2.50;;;45.60;35.20;;;;;;5004535;28;20105;-72
2023/06/11 16:16:58;;;;;;;4.28;2.53;;;45.50;35.70;;;;;;5005079;28;20019;-74
2023/06/11 16:19:24;;;;;;;3.53;2.80;;;45.40;35.50;;;;;;5005131;28;20026;-72
2023/06/11 16:21:50;;;;;;;6.37;4.73;;;46.30;35.50;;;;;;5004741;28;20114;-72
2023/06/11 16:24:16;;;;;;;4.38;2.53;;;47.00;35.40;;;;;;5005213;28;20453;-73
2023/06/11 16:26:42;;;;;;;5.35;2.60;;;47.40;35.20;;;;;;5004554;28;20014;-73
2023/06/11 16:29:08;;;;;;;4.07;2.35;;;46.70;35.40;;;;;;5004865;28;20232;-74
2023/06/11 16:31:33;;;;;;;2.85;2.08;;;45.90;35.40;;;;;;5004208;28;20034;-72
2023/06/11 16:34:00;;;;;;;2.97;2.40;;;45.80;35.20;;;;;;5004735;28;20041;-72
2023/06/11 16:36:27;;;;;;;;;;;45.90;35.40;;;;;;5005556;28;20061;-73
2023/06/11 16:38:53;;;;;;;3.17;2.72;;;46.40;35.20;;;;;;5004933;28;19986;-72
2023/06/11 16:41:20;;;;;;;5.22;2.60;;;46.10;34.90;;;;;;5004866;28;20034;-72
2023/06/11 16:43:46;;;;;;;;;;;45.80;35.40;;;;;;5004492;28;20034;-73
2023/06/11 16:46:11;;;;;;;3.60;2.53;;;44.70;35.80;;;;;;5018591;28;20198;-75
2023/06/11 16:48:37;;;;;;;4.28;3.00;;;44.00;36.20;;;;;;5023356;28;20018;-73
2023/06/11 16:51:03;;;;;;;4.35;2.80;;;43.90;36.50;;;;;;5024471;28;20030;-75
2023/06/11 16:53:29;;;;;;;3.85;2.65;;;44.30;36.30;;;;;;5021296;28;20022;-74
2023/06/11 16:55:58;;;;;;;5.18;3.47;;;44.10;36.40;;;;;;5024316;28;20038;-74
2023/06/11 16:58:23;;;;;;;3.75;3.00;;;43.80;36.30;;;;;;5024161;28;20037;-72
2023/06/11 17:00:50;;;;;;;3.58;2.80;;;44.30;37.10;;;;;;5023631;28;20309;-74
2023/06/11 17:03:15;;;;;;;4.43;2.60;;;44.30;36.50;;;;;;5019840;28;20311;-74
2023/06/11 17:05:41;;;;;;;3.33;2.58;;;44.40;36.10;;;;;;5025858;28;20097;-72
2023/06/11 17:08:07;;;;;;;3.88;2.65;;;44.00;35.80;;;;;;5026212;28;20033;-72
2023/06/11 17:10:34;;;;;;;4.78;2.97;;;43.40;36.20;;;;;;5023595;28;20331;-73
2023/06/11 17:13:00;;;;;;;4.05;2.80;;;43.10;36.40;;;;;;5023382;28;20033;-74
2023/06/11 17:15:26;;;;;;;4.97;2.80;;;42.80;36.30;;;;;;5022968;28;20029;-73
2023/06/11 17:17:52;;;;;;;3.22;2.70;;;41.80;36.60;;;;;;5023602;28;20089;-72
2023/06/11 17:20:17;;;;;;;3.50;2.60;;;41.60;37.10;;;;;;5010039;28;20224;-75
2023/06/11 17:22:46;;;;;;;6.15;2.97;;;41.60;36.90;;;;;;5003384;28;20022;-72
2023/06/11 17:25:11;;;;;;;7.45;3.25;;;42.10;37.10;;;;;;5004146;28;20046;-73
2023/06/11 17:27:37;;;;;;;3.55;2.78;;;42.10;36.80;;;;;;5003538;28;20064;-73
2023/06/11 17:30:04;;;;;;;4.55;2.63;;;42.00;37.20;;;;;;5004181;28;20056;-73
2023/06/11 17:32:30;;;;;;;3.22;2.40;;;42.20;36.70;;;;;;5004194;28;20276;-75
2023/06/11 17:34:56;;;;;;;6.75;2.60;;;42.10;37.20;;;;;;5002254;28;20076;-72
2023/06/11 17:37:25;;;;;;;4.20;2.75;;;41.90;37.20;;;;;;5008167;28;20220;-75
2023/06/11 17:39:51;;;;;;;4.13;2.80;;;42.00;36.70;;;;;;5020944;28;20048;-73
2023/06/11 17:42:17;;;;;;;4.03;2.53;;;42.00;37.20;;;;;;5023448;28;20033;-71
2023/06/11 17:44:43;;;;;;;3.83;2.83;;;42.20;36.70;;;;;;5019030;28;20041;-72
2023/06/11 17:47:09;;;;;;;3.95;2.63;;;41.10;37.10;;;;;;5014442;28;20031;-71
2023/06/11 17:49:35;;;;;;;6.88;2.90;;;40.90;37.50;;;;;;5004260;28;20077;-72